createdAt,value
2023-04-10T00:02:25.113Z,58.10
2023-04-10T00:04:52.355Z,58.20
2023-04-10T00:07:19.162Z,58.40
2023-04-10T00:09:46.043Z,58.30
2023-04-10T00:12:12.950Z,58.30
2023-04-10T00:14:42.202Z,58.30
2023-04-10T00:17:09.289Z,59.00
2023-04-10T00:19:36.244Z,58.50
2023-04-10T00:22:03.279Z,58.50
2023-04-10T00:24:30.443Z,58.50
2023-04-10T00:26:57.785Z,58.60
2023-04-10T00:29:27.428Z,58.60
2023-04-10T00:31:54.314Z,58.70
2023-04-10T00:34:21.065Z,58.80
2023-04-10T00:36:47.935Z,58.90
2023-04-10T00:39:17.479Z,58.90
2023-04-10T00:41:44.282Z,59.00
2023-04-10T00:44:14.031Z,59.00
2023-04-10T00:46:41.367Z,59.10
2023-04-10T00:49:09.647Z,59.10
2023-04-10T00:51:39.805Z,59.10
2023-04-10T00:54:06.676Z,59.30
2023-04-10T00:56:33.895Z,59.20
2023-04-10T00:59:00.783Z,59.30
2023-04-10T01:01:27.586Z,59.50
2023-04-10T01:03:55.045Z,59.40
2023-04-10T01:06:24.862Z,59.30
2023-04-10T01:09:04.084Z,59.30
2023-04-10T01:12:00.153Z,59.30
2023-04-10T01:14:47.751Z,59.30
2023-04-10T01:17:37.444Z,59.20
2023-04-10T01:20:19.214Z,59.20
2023-04-10T01:23:21.899Z,59.20
2023-04-10T01:26:04.239Z,59.20
2023-04-10T01:28:47.493Z,59.20
2023-04-10T01:31:24.131Z,59.20
2023-04-10T01:33:57.874Z,59.10
2023-04-10T01:36:30.302Z,59.10
2023-04-10T01:38:58.652Z,59.00
2023-04-10T01:41:26.869Z,59.10
2023-04-10T01:43:55.798Z,59.00
2023-04-10T01:46:23.371Z,58.90
2023-04-10T01:48:52.218Z,58.90
2023-04-10T01:51:19.426Z,59.00
2023-04-10T01:53:48.122Z,58.90
2023-04-10T01:56:18.485Z,59.50
2023-04-10T01:58:45.572Z,58.80
2023-04-10T02:01:29.276Z,58.70
2023-04-10T02:03:58.719Z,58.70
2023-04-10T02:06:57.574Z,58.70
2023-04-10T02:09:35.096Z,58.70
2023-04-10T02:12:09.165Z,58.60
2023-04-10T02:14:38.838Z,58.60
2023-04-10T02:17:08.161Z,58.50
2023-04-10T02:19:35.754Z,58.50
2023-04-10T02:22:05.086Z,58.50
2023-04-10T02:24:33.735Z,58.50
2023-04-10T02:27:01.581Z,58.50
2023-04-10T02:29:31.517Z,58.50
2023-04-10T02:32:02.977Z,58.50
2023-04-10T02:34:29.722Z,58.50
2023-04-10T02:36:56.938Z,58.50
2023-04-10T02:39:23.734Z,58.50
2023-04-10T02:41:50.634Z,58.50
2023-04-10T02:44:17.506Z,58.50
2023-04-10T02:46:44.422Z,58.50
2023-04-10T02:49:11.197Z,58.60
2023-04-10T02:51:38.071Z,58.60
2023-04-10T02:54:04.869Z,58.60
2023-04-10T02:56:34.798Z,58.60
2023-04-10T02:59:02.220Z,58.70
2023-04-10T03:01:29.147Z,58.70
2023-04-10T03:03:56.107Z,58.70
2023-04-10T03:06:26.166Z,58.80
2023-04-10T03:08:53.589Z,58.80
2023-04-10T03:11:20.315Z,58.90
2023-04-10T03:13:47.479Z,58.90
2023-04-10T03:16:25.353Z,58.80
2023-04-10T03:18:53.294Z,58.90
2023-04-10T03:21:20.219Z,59.00
2023-04-10T03:23:46.940Z,59.10
2023-04-10T03:26:13.695Z,59.20
2023-04-10T03:28:41.371Z,59.20
2023-04-10T03:31:12.498Z,59.30
2023-04-10T03:33:39.528Z,59.40
2023-04-10T03:36:06.829Z,59.50
2023-04-10T03:38:33.653Z,59.50
2023-04-10T03:41:00.513Z,60.40
2023-04-10T03:43:27.281Z,60.70
2023-04-10T03:45:54.076Z,60.90
2023-04-10T03:48:20.897Z,61.90
2023-04-10T03:50:47.690Z,61.10
2023-04-10T03:53:17.384Z,61.20
2023-04-10T03:55:44.177Z,61.30
2023-04-10T03:58:10.972Z,61.40
2023-04-10T04:00:46.451Z,61.40
2023-04-10T04:03:15.888Z,61.50
2023-04-10T04:05:42.823Z,61.70
2023-04-10T04:08:14.003Z,61.70
2023-04-10T04:10:40.912Z,61.80
2023-04-10T04:13:10.785Z,61.70
2023-04-10T04:15:37.498Z,61.90
2023-04-10T04:18:04.522Z,61.90
2023-04-10T04:20:31.286Z,61.90
2023-04-10T04:22:58.024Z,62.80
2023-04-10T04:25:24.866Z,62.10
2023-04-10T04:27:51.663Z,62.20
2023-04-10T04:30:18.410Z,62.30
2023-04-10T04:32:45.535Z,62.30
2023-04-10T04:35:12.425Z,62.40
2023-04-10T04:37:39.201Z,62.40
2023-04-10T04:40:06.481Z,62.50
2023-04-10T04:42:33.386Z,62.60
2023-04-10T04:45:00.235Z,62.70
2023-04-10T04:47:27.129Z,62.60
2023-04-10T04:49:54.249Z,62.70
2023-04-10T04:52:20.935Z,62.60
2023-04-10T04:54:50.924Z,62.70
2023-04-10T04:57:17.621Z,62.90
2023-04-10T04:59:44.460Z,62.70
2023-04-10T05:02:11.402Z,62.90
2023-04-10T05:04:40.439Z,62.90
2023-04-10T05:07:07.511Z,62.90
2023-04-10T05:09:34.293Z,62.90
2023-04-10T05:12:01.005Z,63.00
2023-04-10T05:14:27.989Z,63.00
2023-04-10T05:16:54.699Z,63.00
2023-04-10T05:19:21.558Z,63.00
2023-04-10T05:21:48.365Z,63.10
2023-04-10T05:24:15.335Z,63.10
2023-04-10T05:26:44.831Z,63.10
2023-04-10T05:29:11.513Z,63.40
2023-04-10T05:31:38.886Z,63.10
2023-04-10T05:34:05.757Z,63.20
2023-04-10T05:36:32.751Z,63.20
2023-04-10T05:39:02.331Z,64.00
2023-04-10T05:41:29.000Z,63.10
2023-04-10T05:43:56.242Z,63.10
2023-04-10T05:46:23.157Z,63.20
2023-04-10T05:48:51.013Z,63.10
2023-04-10T05:51:17.734Z,63.10
2023-04-10T05:53:44.761Z,63.00
2023-04-10T05:56:12.639Z,63.10
2023-04-10T05:58:39.320Z,63.00
2023-04-10T06:01:06.458Z,62.90
2023-04-10T06:03:33.307Z,63.00
2023-04-10T06:06:02.651Z,62.90
2023-04-10T06:08:29.598Z,62.90
2023-04-10T06:10:56.434Z,63.00
2023-04-10T06:13:24.220Z,62.90
2023-04-10T06:15:51.343Z,62.90
2023-04-10T06:18:18.070Z,62.80
2023-04-10T06:20:46.890Z,62.70
2023-04-10T06:23:14.245Z,62.60
2023-04-10T06:25:41.832Z,62.60
2023-04-10T06:28:08.560Z,62.70
2023-04-10T06:30:37.226Z,62.60
2023-04-10T06:33:09.842Z,61.40
2023-04-10T06:35:37.647Z,62.20
2023-04-10T06:38:04.919Z,61.30
2023-04-10T06:40:34.098Z,61.10
2023-04-10T06:43:02.366Z,61.10
2023-04-10T06:45:29.112Z,61.00
2023-04-10T06:47:55.854Z,61.00
2023-04-10T06:50:22.690Z,61.00
2023-04-10T06:52:49.613Z,60.90
2023-04-10T06:55:17.197Z,60.80
2023-04-10T06:57:44.010Z,61.70
2023-04-10T07:00:11.293Z,60.70
2023-04-10T07:02:40.912Z,60.70
2023-04-10T07:05:08.116Z,60.60
2023-04-10T07:07:34.922Z,60.50
2023-04-10T07:10:01.719Z,60.60
2023-04-10T07:12:29.658Z,60.40
2023-04-10T07:14:56.468Z,60.50
2023-04-10T07:17:23.186Z,60.40
2023-04-10T07:19:49.949Z,60.50
2023-04-10T07:22:16.820Z,60.40
2023-04-10T07:24:44.209Z,60.40
2023-04-10T07:27:12.360Z,60.30
2023-04-10T07:29:39.065Z,60.20
2023-04-10T07:32:08.298Z,60.10
2023-04-10T07:34:35.110Z,60.00
2023-04-10T07:37:01.860Z,59.90
2023-04-10T07:39:28.602Z,59.80
2023-04-10T07:41:55.428Z,59.70
2023-04-10T07:44:22.458Z,59.60
2023-04-10T07:46:49.438Z,59.50
2023-04-10T07:49:16.287Z,59.20
2023-04-10T07:51:43.301Z,59.00
2023-04-10T07:54:10.065Z,58.70
2023-04-10T07:56:36.778Z,58.60
2023-04-10T07:59:03.837Z,58.30
2023-04-10T08:01:37.010Z,58.10
2023-04-10T08:04:05.979Z,57.50
2023-04-10T08:06:34.389Z,57.40
2023-04-10T08:09:02.043Z,57.40
2023-04-10T08:11:30.733Z,57.00
2023-04-10T08:14:01.674Z,56.70
2023-04-10T08:16:30.853Z,56.70
2023-04-10T08:18:59.017Z,56.60
2023-04-10T08:21:30.745Z,56.70
2023-04-10T08:23:59.418Z,56.80
2023-04-10T08:26:27.651Z,57.00
2023-04-10T08:28:57.499Z,57.10
2023-04-10T08:31:25.934Z,57.10
2023-04-10T08:33:53.256Z,57.80
2023-04-10T08:36:20.650Z,57.10
2023-04-10T08:38:48.243Z,57.20
2023-04-10T08:41:17.101Z,57.20
2023-04-10T08:43:45.796Z,57.00
2023-04-10T08:46:16.150Z,56.60
2023-04-10T08:49:04.258Z,56.50
2023-04-10T08:51:57.610Z,56.50
2023-04-10T08:54:36.055Z,56.60
2023-04-10T08:57:04.124Z,56.60
2023-04-10T08:59:31.557Z,56.80
2023-04-10T09:01:59.409Z,56.60
2023-04-10T09:04:27.264Z,56.70
2023-04-10T09:06:54.085Z,56.50
2023-04-10T09:09:20.960Z,56.60
2023-04-10T09:11:56.805Z,56.30
2023-04-10T09:14:29.485Z,56.50
2023-04-10T09:17:13.515Z,56.50
2023-04-10T09:19:40.461Z,56.60
2023-04-10T09:22:07.309Z,56.80
2023-04-10T09:24:47.401Z,56.70
2023-04-10T09:27:38.509Z,56.60
2023-04-10T09:30:08.442Z,56.60
2023-04-10T09:32:43.466Z,56.60
2023-04-10T09:35:21.006Z,56.70
2023-04-10T09:37:47.813Z,56.60
2023-04-10T09:40:25.134Z,56.60
2023-04-10T09:42:52.545Z,56.70
2023-04-10T09:45:20.577Z,56.60
2023-04-10T09:48:07.884Z,56.50
2023-04-10T09:50:39.499Z,56.00
2023-04-10T09:53:19.239Z,56.50
2023-04-10T09:55:47.549Z,56.50
2023-04-10T09:58:15.904Z,56.60
2023-04-10T10:00:44.835Z,56.40
2023-04-10T10:03:16.572Z,56.40
2023-04-10T10:05:45.453Z,56.30
2023-04-10T10:08:13.440Z,56.40
2023-04-10T10:10:48.430Z,56.40
2023-04-10T10:13:44.539Z,56.00
2023-04-10T10:16:22.170Z,56.10
2023-04-10T10:18:59.391Z,55.80
2023-04-10T10:21:28.482Z,56.00
2023-04-10T10:23:59.045Z,55.90
2023-04-10T10:26:26.379Z,55.70
2023-04-10T10:28:56.126Z,55.80
2023-04-10T10:31:24.911Z,55.60
2023-04-10T10:33:55.391Z,55.70
2023-04-10T10:36:22.953Z,55.40
2023-04-10T10:39:24.764Z,55.70
2023-04-10T10:42:18.787Z,55.70
2023-04-10T10:44:58.384Z,55.50
2023-04-10T10:47:32.426Z,55.50
2023-04-10T10:50:03.534Z,55.60
2023-04-10T10:52:43.438Z,55.30
2023-04-10T10:55:22.427Z,55.20
2023-04-10T10:57:50.346Z,55.10
2023-04-10T11:00:17.211Z,55.00
2023-04-10T11:02:44.660Z,54.90
2023-04-10T11:05:54.299Z,55.40
2023-04-10T11:08:35.854Z,54.50
2023-04-10T11:11:18.546Z,54.10
2023-04-10T11:13:52.169Z,54.30
2023-04-10T11:16:20.457Z,53.70
2023-04-10T11:18:56.197Z,53.80
2023-04-10T11:21:35.769Z,53.80
2023-04-10T11:24:04.590Z,53.80
2023-04-10T11:26:41.250Z,53.60
2023-04-10T11:29:19.512Z,53.60
2023-04-10T11:31:56.471Z,53.50
2023-04-10T11:34:23.441Z,53.30
2023-04-10T11:36:50.457Z,52.80
2023-04-10T11:39:21.499Z,53.10
2023-04-10T11:41:50.443Z,52.70
2023-04-10T11:44:28.886Z,52.00
2023-04-10T11:46:58.228Z,52.30
2023-04-10T11:49:28.084Z,52.10
2023-04-10T11:51:55.433Z,52.40
2023-04-10T11:54:24.611Z,52.40
2023-04-10T11:57:04.630Z,52.20
2023-04-10T11:59:32.831Z,52.20
2023-04-10T12:02:16.046Z,52.30
2023-04-10T12:04:46.047Z,52.20
2023-04-10T12:07:18.990Z,52.30
2023-04-10T12:09:46.328Z,52.30
2023-04-10T12:12:14.379Z,52.00
2023-04-10T12:14:42.726Z,52.40
2023-04-10T12:17:11.254Z,51.20
2023-04-10T12:19:41.465Z,50.90
2023-04-10T12:22:11.104Z,51.40
2023-04-10T12:24:42.330Z,51.50
2023-04-10T12:27:16.771Z,51.40
2023-04-10T12:29:44.332Z,51.20
2023-04-10T12:32:11.127Z,51.30
2023-04-10T12:34:38.591Z,51.30
2023-04-10T12:37:06.185Z,51.30
2023-04-10T12:39:33.040Z,51.40
2023-04-10T12:42:15.484Z,51.50
2023-04-10T12:44:58.886Z,51.10
2023-04-10T12:47:28.042Z,51.70
2023-04-10T12:50:15.023Z,51.70
2023-04-10T12:52:46.646Z,51.70
2023-04-10T12:55:15.518Z,51.80
2023-04-10T12:57:46.802Z,51.90
2023-04-10T13:00:16.438Z,52.30
2023-04-10T13:02:43.830Z,52.40
2023-04-10T13:05:11.445Z,52.20
2023-04-10T13:07:41.677Z,52.40
2023-04-10T13:10:08.838Z,52.60
2023-04-10T13:12:36.394Z,52.70
2023-04-10T13:15:03.842Z,52.10
2023-04-10T13:17:30.636Z,52.30
2023-04-10T13:19:57.471Z,52.30
2023-04-10T13:22:24.346Z,52.30
2023-04-10T13:24:53.773Z,52.40
2023-04-10T13:27:20.726Z,52.30
2023-04-10T13:29:47.583Z,52.40
2023-04-10T13:32:14.475Z,52.10
2023-04-10T13:34:41.395Z,52.30
2023-04-10T13:37:09.342Z,52.40
2023-04-10T13:39:36.167Z,52.40
2023-04-10T13:42:02.826Z,52.40
2023-04-10T13:44:29.667Z,52.30
2023-04-10T13:46:58.056Z,52.60
2023-04-10T13:49:25.034Z,52.60
2023-04-10T13:51:51.758Z,53.30
2023-04-10T13:54:18.638Z,52.80
2023-04-10T13:56:46.580Z,52.80
2023-04-10T13:59:13.479Z,52.80
2023-04-10T14:01:40.469Z,52.90
2023-04-10T14:04:07.560Z,52.80
2023-04-10T14:06:34.507Z,53.00
2023-04-10T14:09:01.558Z,53.20
2023-04-10T14:11:31.571Z,54.20
2023-04-10T14:14:02.029Z,53.80
2023-04-10T14:16:28.925Z,54.10
2023-04-10T14:18:55.925Z,54.40
2023-04-10T14:21:22.898Z,54.90
2023-04-10T14:23:49.692Z,55.00
2023-04-10T14:26:16.473Z,55.30
2023-04-10T14:28:43.288Z,55.70
2023-04-10T14:31:13.174Z,55.90
2023-04-10T14:33:40.140Z,56.20
2023-04-10T14:36:07.260Z,57.30
2023-04-10T14:38:34.181Z,56.90
2023-04-10T14:41:00.997Z,57.30
2023-04-10T14:43:27.758Z,57.40
2023-04-10T14:45:54.522Z,57.70
2023-04-10T14:48:21.383Z,58.00
2023-04-10T14:50:49.529Z,58.40
2023-04-10T14:53:16.944Z,58.40
2023-04-10T14:55:43.733Z,58.40
2023-04-10T14:58:11.397Z,58.50
2023-04-10T15:00:38.201Z,58.90
2023-04-10T15:03:06.645Z,58.80
2023-04-10T15:05:33.643Z,59.00
2023-04-10T15:08:00.510Z,59.20
2023-04-10T15:10:31.573Z,59.50
2023-04-10T15:12:58.423Z,60.00
2023-04-10T15:15:25.220Z,60.20
2023-04-10T15:17:52.100Z,60.40
2023-04-10T15:20:19.239Z,60.90
2023-04-10T15:22:48.029Z,60.90
2023-04-10T15:25:15.134Z,61.00
2023-04-10T15:27:41.941Z,61.10
2023-04-10T15:30:09.004Z,61.20
2023-04-10T15:32:38.012Z,61.20
2023-04-10T15:35:05.895Z,61.20
2023-04-10T15:37:35.041Z,61.20
2023-04-10T15:40:06.295Z,61.50
2023-04-10T15:42:36.750Z,61.60
2023-04-10T15:45:04.085Z,61.80
2023-04-10T15:47:31.101Z,61.70
2023-04-10T15:50:01.019Z,61.60
2023-04-10T15:52:29.438Z,61.60
2023-04-10T15:54:57.405Z,61.60
2023-04-10T15:57:24.190Z,61.70
2023-04-10T15:59:56.153Z,61.80
2023-04-10T16:02:23.072Z,61.90
2023-04-10T16:04:49.987Z,62.70
2023-04-10T16:07:21.114Z,62.10
2023-04-10T16:09:48.067Z,62.10
2023-04-10T16:12:14.887Z,62.20
2023-04-10T16:14:41.588Z,62.30
2023-04-10T16:17:08.353Z,62.50
2023-04-10T16:19:35.282Z,62.70
2023-04-10T16:22:02.121Z,62.90
2023-04-10T16:24:29.061Z,63.40
2023-04-10T16:26:56.482Z,63.60
2023-04-10T16:29:23.343Z,63.80
2023-04-10T16:31:52.722Z,64.00
2023-04-10T16:34:19.835Z,64.40
2023-04-10T16:36:46.589Z,64.60
2023-04-10T16:39:13.363Z,65.00
2023-04-10T16:41:43.181Z,65.30
2023-04-10T16:44:10.032Z,66.20
2023-04-10T16:46:37.036Z,66.00
2023-04-10T16:49:06.688Z,66.50
2023-04-10T16:51:33.403Z,67.20
2023-04-10T16:54:00.285Z,67.40
2023-04-10T16:56:27.140Z,67.80
2023-04-10T16:58:54.145Z,68.10
2023-04-10T17:01:25.777Z,68.70
2023-04-10T17:03:55.747Z,69.00
2023-04-10T17:06:22.864Z,69.20
2023-04-10T17:08:50.001Z,69.80
2023-04-10T17:11:16.716Z,69.60
2023-04-10T17:13:46.174Z,70.30
2023-04-10T17:16:13.201Z,70.60
2023-04-10T17:18:40.745Z,70.90
2023-04-10T17:21:21.016Z,70.90
2023-04-10T17:23:48.858Z,71.20
2023-04-10T17:26:16.950Z,71.10
2023-04-10T17:28:45.163Z,71.20
2023-04-10T17:31:13.373Z,71.60
2023-04-10T17:33:43.546Z,71.80
2023-04-10T17:36:12.399Z,72.20
2023-04-10T17:38:40.171Z,72.10
2023-04-10T17:41:10.340Z,72.50
2023-04-10T17:43:37.072Z,72.40
2023-04-10T17:46:03.930Z,72.60
2023-04-10T17:48:31.124Z,73.10
2023-04-10T17:50:58.210Z,73.30
2023-04-10T17:53:28.233Z,73.10
2023-04-10T17:55:54.945Z,73.50
2023-04-10T17:58:21.694Z,73.50
2023-04-10T18:00:48.401Z,73.60
2023-04-10T18:03:15.214Z,73.90
2023-04-10T18:05:42.048Z,74.00
2023-04-10T18:08:08.905Z,73.90
2023-04-10T18:10:36.054Z,74.10
2023-04-10T18:13:02.886Z,74.40
2023-04-10T18:15:30.193Z,74.60
2023-04-10T18:18:04.431Z,74.60
2023-04-10T18:20:55.081Z,74.70
2023-04-10T18:23:28.478Z,75.00
2023-04-10T18:25:55.922Z,75.00
2023-04-10T18:28:23.199Z,75.50
2023-04-10T18:30:55.078Z,76.30
2023-04-10T18:33:25.070Z,75.30
2023-04-10T18:35:59.552Z,75.70
2023-04-10T18:38:26.989Z,75.70
2023-04-10T18:40:57.944Z,75.70
2023-04-10T18:43:25.648Z,76.00
2023-04-10T18:45:52.582Z,75.90
2023-04-10T18:48:19.549Z,76.00
2023-04-10T18:50:46.374Z,76.30
2023-04-10T18:53:13.163Z,76.20
2023-04-10T18:55:39.873Z,76.30
2023-04-10T18:58:07.025Z,77.00
2023-04-10T19:00:34.205Z,76.60
2023-04-10T19:03:01.397Z,76.80
2023-04-10T19:05:32.514Z,77.00
2023-04-10T19:08:04.255Z,76.80
2023-04-10T19:10:32.408Z,77.00
2023-04-10T19:12:59.257Z,77.10
2023-04-10T19:15:26.070Z,77.00
2023-04-10T19:17:53.933Z,77.00
2023-04-10T19:20:50.944Z,77.00
2023-04-10T19:23:09.453Z,77.00
2023-04-10T19:25:36.246Z,77.30
2023-04-10T19:28:03.141Z,77.00
2023-04-10T19:30:30.064Z,77.00
2023-04-10T19:32:56.925Z,77.20
2023-04-10T19:35:23.679Z,77.80
2023-04-10T19:37:50.447Z,77.10
2023-04-10T19:40:19.264Z,77.20
2023-04-10T19:42:46.215Z,77.60
2023-04-10T19:45:13.450Z,77.80
2023-04-10T19:47:40.358Z,78.40
2023-04-10T19:50:07.893Z,77.40
2023-04-10T19:52:34.638Z,77.50
2023-04-10T19:55:01.604Z,77.40
2023-04-10T19:57:28.345Z,77.40
2023-04-10T19:59:55.320Z,77.30
2023-04-10T20:02:23.041Z,78.10
2023-04-10T20:04:49.987Z,77.40
2023-04-10T20:07:16.856Z,77.40
2023-04-10T20:09:43.701Z,77.40
2023-04-10T20:12:13.428Z,77.70
2023-04-10T20:14:40.232Z,77.70
2023-04-10T20:17:07.625Z,77.50
2023-04-10T20:19:34.892Z,77.50
2023-04-10T20:22:02.508Z,77.70
2023-04-10T20:24:29.479Z,77.80
2023-04-10T20:26:57.734Z,77.80
2023-04-10T20:29:24.539Z,77.60
2023-04-10T20:31:51.407Z,77.70
2023-04-10T20:34:18.190Z,77.60
2023-04-10T20:36:44.906Z,77.80
2023-04-10T20:39:11.980Z,78.00
2023-04-10T20:41:44.346Z,77.90
2023-04-10T20:44:11.085Z,78.20
2023-04-10T20:46:38.243Z,78.00
2023-04-10T20:49:04.971Z,77.90
2023-04-10T20:51:33.617Z,78.00
2023-04-10T20:54:00.375Z,77.80
2023-04-10T20:56:33.334Z,77.90
2023-04-10T20:59:09.316Z,78.00
2023-04-10T21:01:36.482Z,77.90
2023-04-10T21:04:03.286Z,78.00
2023-04-10T21:06:33.186Z,78.00
2023-04-10T21:08:59.980Z,78.00
2023-04-10T21:11:27.507Z,77.90
2023-04-10T21:13:54.613Z,77.90
2023-04-10T21:16:21.646Z,77.70
2023-04-10T21:18:48.572Z,77.80
2023-04-10T21:21:15.506Z,78.00
2023-04-10T21:23:42.290Z,77.90
2023-04-10T21:26:09.162Z,78.00
2023-04-10T21:28:36.027Z,78.20
2023-04-10T21:31:02.849Z,78.20
2023-04-10T21:33:29.678Z,78.20
2023-04-10T21:35:56.792Z,78.20
2023-04-10T21:38:26.507Z,78.20
2023-04-10T21:40:53.976Z,78.20
2023-04-10T21:43:21.689Z,78.20
2023-04-10T21:45:49.051Z,78.30
2023-04-10T21:48:16.018Z,78.20
2023-04-10T21:50:45.200Z,78.20
2023-04-10T21:53:12.136Z,78.30
2023-04-10T21:55:41.969Z,78.30
2023-04-10T21:58:11.116Z,78.40
2023-04-10T22:00:37.950Z,78.40
2023-04-10T22:03:04.854Z,78.50
2023-04-10T22:05:31.928Z,78.80
2023-04-10T22:07:58.578Z,78.50
2023-04-10T22:10:25.312Z,78.60
2023-04-10T22:12:52.154Z,78.60
2023-04-10T22:15:19.184Z,78.50
2023-04-10T22:17:46.087Z,78.50
2023-04-10T22:20:16.162Z,78.60
2023-04-10T22:22:42.870Z,78.50
2023-04-10T22:25:09.766Z,78.50
2023-04-10T22:27:36.655Z,78.50
2023-04-10T22:30:04.676Z,78.50
2023-04-10T22:32:32.113Z,78.40
2023-04-10T22:34:59.809Z,78.40
2023-04-10T22:37:27.317Z,78.20
2023-04-10T22:39:56.104Z,78.20
2023-04-10T22:42:23.308Z,78.10
2023-04-10T22:44:50.082Z,78.00
2023-04-10T22:47:16.911Z,78.00
2023-04-10T22:49:43.709Z,77.90
2023-04-10T22:52:11.687Z,77.90
2023-04-10T22:54:38.422Z,78.00
2023-04-10T22:57:05.954Z,77.80
2023-04-10T22:59:32.733Z,77.70
2023-04-10T23:01:59.505Z,77.80
2023-04-10T23:04:26.487Z,77.50
2023-04-10T23:06:56.136Z,77.60
2023-04-10T23:09:22.855Z,77.50
2023-04-10T23:11:49.676Z,77.50
2023-04-10T23:14:16.378Z,77.50
2023-04-10T23:16:45.891Z,77.50
2023-04-10T23:19:12.615Z,77.50
2023-04-10T23:21:39.305Z,77.50
2023-04-10T23:24:06.204Z,77.40
2023-04-10T23:26:36.427Z,77.40
2023-04-10T23:29:03.270Z,77.30
2023-04-10T23:31:30.179Z,77.20
2023-04-10T23:33:56.982Z,77.20
2023-04-10T23:36:23.719Z,77.30
2023-04-10T23:38:50.604Z,77.20
2023-04-10T23:41:17.463Z,77.50
2023-04-10T23:43:44.659Z,77.20
2023-04-10T23:46:11.460Z,77.10
2023-04-10T23:48:38.307Z,77.10
2023-04-10T23:51:06.499Z,77.00
2023-04-10T23:53:33.592Z,77.10
2023-04-10T23:56:00.777Z,77.00
2023-04-10T23:58:27.464Z,76.90
